sensor_id;sensor_type;location;lat;lon;timestamp;P1;durP1;ratioP1;P2;durP2;ratioP2
59786;SDS011;45672;51.612;5.536;2023-07-09T00:00:29;16.08;;;10.40;;
59786;SDS011;45672;51.612;5.536;2023-07-09T00:02:54;14.00;;;10.50;;
59786;SDS011;45672;51.612;5.536;2023-07-09T00:05:19;16.63;;;10.65;;
59786;SDS011;45672;51.612;5.536;2023-07-09T00:07:44;13.38;;;10.35;;
59786;SDS011;45672;51.612;5.536;2023-07-09T00:10:14;18.63;;;10.45;;
59786;SDS011;45672;51.612;5.536;2023-07-09T00:12:44;18.15;;;10.95;;
59786;SDS011;45672;51.612;5.536;2023-07-09T00:15:13;16.88;;;11.10;;
59786;SDS011;45672;51.612;5.536;2023-07-09T00:17:43;16.40;;;11.65;;
59786;SDS011;45672;51.612;5.536;2023-07-09T00:20:12;18.08;;;12.38;;
59786;SDS011;45672;51.612;5.536;2023-07-09T00:22:40;18.88;;;12.82;;
59786;SDS011;45672;51.612;5.536;2023-07-09T00:25:09;22.00;;;13.30;;
59786;SDS011;45672;51.612;5.536;2023-07-09T00:27:38;20.27;;;13.35;;
59786;SDS011;45672;51.612;5.536;2023-07-09T00:30:05;18.73;;;13.25;;
59786;SDS011;45672;51.612;5.536;2023-07-09T00:32:37;17.58;;;13.48;;
59786;SDS011;45672;51.612;5.536;2023-07-09T00:35:08;22.08;;;14.43;;
59786;SDS011;45672;51.612;5.536;2023-07-09T00:37:34;18.60;;;13.95;;
59786;SDS011;45672;51.612;5.536;2023-07-09T00:39:59;20.77;;;15.52;;
59786;SDS011;45672;51.612;5.536;2023-07-09T00:42:25;16.67;;;14.65;;
59786;SDS011;45672;51.612;5.536;2023-07-09T00:44:51;19.52;;;15.60;;
59786;SDS011;45672;51.612;5.536;2023-07-09T00:47:18;19.90;;;15.13;;
59786;SDS011;45672;51.612;5.536;2023-07-09T00:49:48;20.92;;;15.75;;
59786;SDS011;45672;51.612;5.536;2023-07-09T00:54:53;21.30;;;15.80;;
59786;SDS011;45672;51.612;5.536;2023-07-09T00:57:20;24.58;;;15.68;;
59786;SDS011;45672;51.612;5.536;2023-07-09T00:59:50;22.27;;;15.18;;
59786;SDS011;45672;51.612;5.536;2023-07-09T01:02:21;23.13;;;15.02;;
59786;SDS011;45672;51.612;5.536;2023-07-09T01:04:49;17.92;;;14.55;;
59786;SDS011;45672;51.612;5.536;2023-07-09T01:07:16;21.10;;;14.90;;
59786;SDS011;45672;51.612;5.536;2023-07-09T01:09:42;26.90;;;15.85;;
59786;SDS011;45672;51.612;5.536;2023-07-09T01:12:08;18.98;;;16.05;;
59786;SDS011;45672;51.612;5.536;2023-07-09T01:14:35;22.17;;;15.80;;
59786;SDS011;45672;51.612;5.536;2023-07-09T01:17:03;21.27;;;16.52;;
59786;SDS011;45672;51.612;5.536;2023-07-09T01:19:36;21.05;;;15.75;;
59786;SDS011;45672;51.612;5.536;2023-07-09T01:22:08;24.25;;;13.80;;
59786;SDS011;45672;51.612;5.536;2023-07-09T01:24:52;18.23;;;14.30;;
59786;SDS011;45672;51.612;5.536;2023-07-09T01:27:24;20.52;;;14.40;;
59786;SDS011;45672;51.612;5.536;2023-07-09T01:29:53;21.02;;;14.93;;
59786;SDS011;45672;51.612;5.536;2023-07-09T01:32:20;18.63;;;13.38;;
59786;SDS011;45672;51.612;5.536;2023-07-09T01:34:47;22.52;;;14.05;;
59786;SDS011;45672;51.612;5.536;2023-07-09T01:37:15;19.40;;;13.57;;
59786;SDS011;45672;51.612;5.536;2023-07-09T01:39:43;19.02;;;13.43;;
59786;SDS011;45672;51.612;5.536;2023-07-09T01:42:09;17.38;;;13.93;;
59786;SDS011;45672;51.612;5.536;2023-07-09T01:44:35;19.70;;;13.65;;
59786;SDS011;45672;51.612;5.536;2023-07-09T01:47:02;20.40;;;14.05;;
59786;SDS011;45672;51.612;5.536;2023-07-09T01:49:29;21.52;;;14.98;;
59786;SDS011;45672;51.612;5.536;2023-07-09T01:51:57;22.83;;;14.48;;
59786;SDS011;45672;51.612;5.536;2023-07-09T01:54:25;20.58;;;14.90;;
59786;SDS011;45672;51.612;5.536;2023-07-09T01:56:52;21.88;;;15.75;;
59786;SDS011;45672;51.612;5.536;2023-07-09T01:59:21;21.58;;;15.43;;
59786;SDS011;45672;51.612;5.536;2023-07-09T02:01:47;18.13;;;15.10;;
59786;SDS011;45672;51.612;5.536;2023-07-09T02:04:12;25.33;;;17.13;;
59786;SDS011;45672;51.612;5.536;2023-07-09T02:06:38;23.88;;;17.02;;
59786;SDS011;45672;51.612;5.536;2023-07-09T02:09:03;25.60;;;16.85;;
59786;SDS011;45672;51.612;5.536;2023-07-09T02:11:28;24.88;;;16.60;;
59786;SDS011;45672;51.612;5.536;2023-07-09T02:13:54;24.05;;;15.82;;
59786;SDS011;45672;51.612;5.536;2023-07-09T02:16:19;26.30;;;16.02;;
59786;SDS011;45672;51.612;5.536;2023-07-09T02:18:44;23.45;;;16.20;;
59786;SDS011;45672;51.612;5.536;2023-07-09T02:21:09;26.27;;;17.17;;
59786;SDS011;45672;51.612;5.536;2023-07-09T02:23:35;21.30;;;15.63;;
59786;SDS011;45672;51.612;5.536;2023-07-09T02:26:00;18.98;;;15.45;;
59786;SDS011;45672;51.612;5.536;2023-07-09T02:28:25;19.88;;;15.48;;
59786;SDS011;45672;51.612;5.536;2023-07-09T02:30:51;25.17;;;15.93;;
59786;SDS011;45672;51.612;5.536;2023-07-09T02:33:18;26.10;;;15.30;;
59786;SDS011;45672;51.612;5.536;2023-07-09T02:35:45;20.35;;;14.98;;
59786;SDS011;45672;51.612;5.536;2023-07-09T02:38:10;20.77;;;15.32;;
59786;SDS011;45672;51.612;5.536;2023-07-09T02:40:36;22.17;;;15.70;;
59786;SDS011;45672;51.612;5.536;2023-07-09T02:43:01;25.02;;;15.05;;
59786;SDS011;45672;51.612;5.536;2023-07-09T02:45:26;26.25;;;16.10;;
59786;SDS011;45672;51.612;5.536;2023-07-09T02:47:51;25.80;;;15.27;;
59786;SDS011;45672;51.612;5.536;2023-07-09T02:50:17;22.10;;;15.80;;
59786;SDS011;45672;51.612;5.536;2023-07-09T02:52:42;20.52;;;15.55;;
59786;SDS011;45672;51.612;5.536;2023-07-09T02:55:07;24.25;;;16.63;;
59786;SDS011;45672;51.612;5.536;2023-07-09T02:57:33;20.88;;;16.02;;
59786;SDS011;45672;51.612;5.536;2023-07-09T02:59:58;28.00;;;16.45;;
59786;SDS011;45672;51.612;5.536;2023-07-09T03:02:24;28.98;;;16.27;;
59786;SDS011;45672;51.612;5.536;2023-07-09T03:04:49;24.55;;;16.95;;
59786;SDS011;45672;51.612;5.536;2023-07-09T03:07:14;20.85;;;15.68;;
59786;SDS011;45672;51.612;5.536;2023-07-09T03:09:40;20.38;;;16.08;;
59786;SDS011;45672;51.612;5.536;2023-07-09T03:12:05;23.90;;;16.88;;
59786;SDS011;45672;51.612;5.536;2023-07-09T03:14:31;22.48;;;16.40;;
59786;SDS011;45672;51.612;5.536;2023-07-09T03:16:57;22.58;;;16.88;;
59786;SDS011;45672;51.612;5.536;2023-07-09T03:19:23;22.70;;;16.13;;
59786;SDS011;45672;51.612;5.536;2023-07-09T03:21:48;24.40;;;16.48;;
59786;SDS011;45672;51.612;5.536;2023-07-09T03:24:13;25.58;;;16.75;;
59786;SDS011;45672;51.612;5.536;2023-07-09T03:26:43;21.00;;;15.38;;
59786;SDS011;45672;51.612;5.536;2023-07-09T03:29:10;22.83;;;15.77;;
59786;SDS011;45672;51.612;5.536;2023-07-09T03:31:35;20.02;;;16.20;;
59786;SDS011;45672;51.612;5.536;2023-07-09T03:34:00;24.80;;;16.90;;
59786;SDS011;45672;51.612;5.536;2023-07-09T03:36:26;21.92;;;16.52;;
59786;SDS011;45672;51.612;5.536;2023-07-09T03:38:51;21.60;;;16.08;;
59786;SDS011;45672;51.612;5.536;2023-07-09T03:41:17;20.70;;;15.40;;
59786;SDS011;45672;51.612;5.536;2023-07-09T03:43:42;22.55;;;16.52;;
59786;SDS011;45672;51.612;5.536;2023-07-09T03:46:08;24.60;;;16.88;;
59786;SDS011;45672;51.612;5.536;2023-07-09T03:48:33;22.50;;;16.83;;
59786;SDS011;45672;51.612;5.536;2023-07-09T03:50:59;21.35;;;16.88;;
59786;SDS011;45672;51.612;5.536;2023-07-09T03:53:24;24.30;;;16.60;;
59786;SDS011;45672;51.612;5.536;2023-07-09T03:55:53;21.38;;;16.77;;
59786;SDS011;45672;51.612;5.536;2023-07-09T03:58:20;24.15;;;17.30;;
59786;SDS011;45672;51.612;5.536;2023-07-09T04:00:45;22.17;;;17.30;;
59786;SDS011;45672;51.612;5.536;2023-07-09T04:03:10;23.60;;;16.17;;
59786;SDS011;45672;51.612;5.536;2023-07-09T04:05:36;27.92;;;16.10;;
59786;SDS011;45672;51.612;5.536;2023-07-09T04:08:01;23.67;;;16.98;;
59786;SDS011;45672;51.612;5.536;2023-07-09T04:10:27;28.35;;;16.50;;
59786;SDS011;45672;51.612;5.536;2023-07-09T04:12:53;27.40;;;17.88;;
59786;SDS011;45672;51.612;5.536;2023-07-09T04:15:18;28.45;;;17.25;;
59786;SDS011;45672;51.612;5.536;2023-07-09T04:17:43;24.50;;;17.85;;
59786;SDS011;45672;51.612;5.536;2023-07-09T04:20:09;23.92;;;17.13;;
59786;SDS011;45672;51.612;5.536;2023-07-09T04:22:35;25.55;;;18.00;;
59786;SDS011;45672;51.612;5.536;2023-07-09T04:25:01;22.48;;;17.13;;
59786;SDS011;45672;51.612;5.536;2023-07-09T04:27:28;24.02;;;17.55;;
59786;SDS011;45672;51.612;5.536;2023-07-09T04:29:54;26.10;;;18.30;;
59786;SDS011;45672;51.612;5.536;2023-07-09T04:32:20;23.80;;;17.73;;
59786;SDS011;45672;51.612;5.536;2023-07-09T04:34:45;21.42;;;17.35;;
59786;SDS011;45672;51.612;5.536;2023-07-09T04:37:11;26.50;;;18.88;;
59786;SDS011;45672;51.612;5.536;2023-07-09T04:39:37;27.20;;;18.55;;
59786;SDS011;45672;51.612;5.536;2023-07-09T04:42:02;31.00;;;19.02;;
59786;SDS011;45672;51.612;5.536;2023-07-09T04:44:28;24.85;;;19.85;;
59786;SDS011;45672;51.612;5.536;2023-07-09T04:46:54;28.35;;;20.50;;
59786;SDS011;45672;51.612;5.536;2023-07-09T04:49:19;31.73;;;22.27;;
59786;SDS011;45672;51.612;5.536;2023-07-09T04:51:44;31.98;;;22.55;;
59786;SDS011;45672;51.612;5.536;2023-07-09T04:54:10;28.98;;;21.50;;
59786;SDS011;45672;51.612;5.536;2023-07-09T04:56:35;30.20;;;22.17;;
59786;SDS011;45672;51.612;5.536;2023-07-09T04:59:02;33.30;;;23.63;;
59786;SDS011;45672;51.612;5.536;2023-07-09T05:01:28;32.80;;;22.35;;
59786;SDS011;45672;51.612;5.536;2023-07-09T05:03:54;30.08;;;21.55;;
59786;SDS011;45672;51.612;5.536;2023-07-09T05:06:19;32.53;;;22.40;;
59786;SDS011;45672;51.612;5.536;2023-07-09T05:08:45;28.80;;;22.52;;
59786;SDS011;45672;51.612;5.536;2023-07-09T05:11:12;28.48;;;22.58;;
59786;SDS011;45672;51.612;5.536;2023-07-09T05:13:37;35.42;;;23.02;;
59786;SDS011;45672;51.612;5.536;2023-07-09T05:16:02;34.03;;;22.42;;
59786;SDS011;45672;51.612;5.536;2023-07-09T05:18:28;33.15;;;22.80;;
59786;SDS011;45672;51.612;5.536;2023-07-09T05:20:54;33.42;;;22.75;;
59786;SDS011;45672;51.612;5.536;2023-07-09T05:23:20;31.80;;;22.60;;
59786;SDS011;45672;51.612;5.536;2023-07-09T05:25:46;32.03;;;22.58;;
59786;SDS011;45672;51.612;5.536;2023-07-09T05:28:11;29.88;;;22.23;;
59786;SDS011;45672;51.612;5.536;2023-07-09T05:30:37;30.17;;;22.05;;
59786;SDS011;45672;51.612;5.536;2023-07-09T05:33:02;28.27;;;22.25;;
59786;SDS011;45672;51.612;5.536;2023-07-09T05:35:27;28.35;;;22.02;;
59786;SDS011;45672;51.612;5.536;2023-07-09T05:37:53;29.48;;;22.05;;
59786;SDS011;45672;51.612;5.536;2023-07-09T05:40:19;39.67;;;22.05;;
59786;SDS011;45672;51.612;5.536;2023-07-09T05:42:45;30.35;;;22.75;;
59786;SDS011;45672;51.612;5.536;2023-07-09T05:45:10;29.92;;;21.60;;
59786;SDS011;45672;51.612;5.536;2023-07-09T05:47:36;33.90;;;22.88;;
59786;SDS011;45672;51.612;5.536;2023-07-09T05:50:01;31.40;;;21.90;;
59786;SDS011;45672;51.612;5.536;2023-07-09T05:52:27;27.80;;;21.92;;
59786;SDS011;45672;51.612;5.536;2023-07-09T05:54:54;28.25;;;22.45;;
59786;SDS011;45672;51.612;5.536;2023-07-09T05:57:20;28.45;;;21.13;;
59786;SDS011;45672;51.612;5.536;2023-07-09T05:59:45;36.30;;;22.08;;
59786;SDS011;45672;51.612;5.536;2023-07-09T06:02:15;29.00;;;21.77;;
59786;SDS011;45672;51.612;5.536;2023-07-09T06:04:43;33.38;;;21.90;;
59786;SDS011;45672;51.612;5.536;2023-07-09T06:07:09;31.65;;;21.63;;
59786;SDS011;45672;51.612;5.536;2023-07-09T06:09:35;30.17;;;21.17;;
59786;SDS011;45672;51.612;5.536;2023-07-09T06:12:01;29.75;;;21.00;;
59786;SDS011;45672;51.612;5.536;2023-07-09T06:14:27;28.90;;;21.08;;
59786;SDS011;45672;51.612;5.536;2023-07-09T06:16:53;28.20;;;21.63;;
59786;SDS011;45672;51.612;5.536;2023-07-09T06:19:18;30.88;;;20.92;;
59786;SDS011;45672;51.612;5.536;2023-07-09T06:21:43;30.55;;;21.67;;
59786;SDS011;45672;51.612;5.536;2023-07-09T06:24:09;30.98;;;21.88;;
59786;SDS011;45672;51.612;5.536;2023-07-09T06:26:35;33.55;;;22.02;;
59786;SDS011;45672;51.612;5.536;2023-07-09T06:29:01;33.60;;;21.23;;
59786;SDS011;45672;51.612;5.536;2023-07-09T06:31:27;27.92;;;20.08;;
59786;SDS011;45672;51.612;5.536;2023-07-09T06:33:52;27.35;;;20.83;;
59786;SDS011;45672;51.612;5.536;2023-07-09T06:36:18;32.15;;;21.17;;
59786;SDS011;45672;51.612;5.536;2023-07-09T06:38:45;35.03;;;19.88;;
59786;SDS011;45672;51.612;5.536;2023-07-09T06:41:11;23.63;;;19.60;;
59786;SDS011;45672;51.612;5.536;2023-07-09T06:43:36;28.95;;;19.83;;
59786;SDS011;45672;51.612;5.536;2023-07-09T06:46:05;26.38;;;19.65;;
59786;SDS011;45672;51.612;5.536;2023-07-09T06:48:32;29.75;;;18.65;;
59786;SDS011;45672;51.612;5.536;2023-07-09T06:50:58;31.85;;;18.98;;
59786;SDS011;45672;51.612;5.536;2023-07-09T06:53:25;25.50;;;17.38;;
59786;SDS011;45672;51.612;5.536;2023-07-09T06:55:51;25.67;;;17.60;;
59786;SDS011;45672;51.612;5.536;2023-07-09T06:58:20;30.15;;;17.65;;
59786;SDS011;45672;51.612;5.536;2023-07-09T07:00:49;21.15;;;16.13;;
59786;SDS011;45672;51.612;5.536;2023-07-09T07:03:15;21.73;;;16.17;;
59786;SDS011;45672;51.612;5.536;2023-07-09T07:05:44;22.85;;;15.13;;
59786;SDS011;45672;51.612;5.536;2023-07-09T07:08:10;21.35;;;15.00;;
59786;SDS011;45672;51.612;5.536;2023-07-09T07:10:36;20.13;;;13.43;;
59786;SDS011;45672;51.612;5.536;2023-07-09T07:13:01;20.65;;;13.05;;
59786;SDS011;45672;51.612;5.536;2023-07-09T07:15:27;15.85;;;12.13;;
59786;SDS011;45672;51.612;5.536;2023-07-09T07:17:52;19.55;;;11.63;;
59786;SDS011;45672;51.612;5.536;2023-07-09T07:20:17;20.77;;;12.40;;
59786;SDS011;45672;51.612;5.536;2023-07-09T07:22:43;16.75;;;11.85;;
59786;SDS011;45672;51.612;5.536;2023-07-09T07:25:09;19.52;;;11.50;;
59786;SDS011;45672;51.612;5.536;2023-07-09T07:27:35;14.20;;;11.65;;
59786;SDS011;45672;51.612;5.536;2023-07-09T07:30:01;18.10;;;10.88;;
59786;SDS011;45672;51.612;5.536;2023-07-09T07:32:27;17.70;;;10.65;;
59786;SDS011;45672;51.612;5.536;2023-07-09T07:34:52;14.88;;;10.35;;
59786;SDS011;45672;51.612;5.536;2023-07-09T07:37:19;14.23;;;10.25;;
59786;SDS011;45672;51.612;5.536;2023-07-09T07:39:46;16.00;;;9.63;;
59786;SDS011;45672;51.612;5.536;2023-07-09T07:42:14;14.15;;;9.55;;
59786;SDS011;45672;51.612;5.536;2023-07-09T07:44:39;13.45;;;9.63;;
59786;SDS011;45672;51.612;5.536;2023-07-09T07:47:05;16.35;;;9.20;;
59786;SDS011;45672;51.612;5.536;2023-07-09T07:49:31;13.80;;;8.23;;
59786;SDS011;45672;51.612;5.536;2023-07-09T07:51:57;16.80;;;7.43;;
59786;SDS011;45672;51.612;5.536;2023-07-09T07:54:22;16.40;;;7.40;;
59786;SDS011;45672;51.612;5.536;2023-07-09T07:56:48;9.40;;;7.50;;
59786;SDS011;45672;51.612;5.536;2023-07-09T07:59:13;15.68;;;7.13;;
59786;SDS011;45672;51.612;5.536;2023-07-09T08:01:39;9.40;;;6.50;;
59786;SDS011;45672;51.612;5.536;2023-07-09T08:04:05;12.88;;;6.20;;
59786;SDS011;45672;51.612;5.536;2023-07-09T08:06:30;17.38;;;5.78;;
59786;SDS011;45672;51.612;5.536;2023-07-09T08:08:56;10.90;;;4.97;;
59786;SDS011;45672;51.612;5.536;2023-07-09T08:11:22;10.27;;;5.97;;
59786;SDS011;45672;51.612;5.536;2023-07-09T08:13:49;7.90;;;4.90;;
59786;SDS011;45672;51.612;5.536;2023-07-09T08:16:14;12.02;;;5.18;;
59786;SDS011;45672;51.612;5.536;2023-07-09T08:18:40;12.30;;;5.53;;
59786;SDS011;45672;51.612;5.536;2023-07-09T08:21:05;7.68;;;5.50;;
59786;SDS011;45672;51.612;5.536;2023-07-09T08:23:31;16.67;;;5.38;;
59786;SDS011;45672;51.612;5.536;2023-07-09T08:25:57;14.90;;;4.72;;
59786;SDS011;45672;51.612;5.536;2023-07-09T08:28:24;9.88;;;4.80;;
59786;SDS011;45672;51.612;5.536;2023-07-09T08:30:53;9.65;;;4.55;;
59786;SDS011;45672;51.612;5.536;2023-07-09T08:33:19;9.68;;;4.25;;
59786;SDS011;45672;51.612;5.536;2023-07-09T08:35:48;12.07;;;4.72;;
59786;SDS011;45672;51.612;5.536;2023-07-09T08:38:14;7.25;;;4.35;;
59786;SDS011;45672;51.612;5.536;2023-07-09T08:40:40;5.87;;;4.40;;
59786;SDS011;45672;51.612;5.536;2023-07-09T08:43:50;5.93;;;4.40;;
59786;SDS011;45672;51.612;5.536;2023-07-09T08:48:59;10.70;;;4.60;;
59786;SDS011;45672;51.612;5.536;2023-07-09T08:51:35;7.30;;;4.70;;
59786;SDS011;45672;51.612;5.536;2023-07-09T08:54:04;8.52;;;4.50;;
59786;SDS011;45672;51.612;5.536;2023-07-09T08:56:39;8.65;;;4.28;;
59786;SDS011;45672;51.612;5.536;2023-07-09T08:59:07;8.85;;;4.32;;
59786;SDS011;45672;51.612;5.536;2023-07-09T09:04:21;10.63;;;4.28;;
59786;SDS011;45672;51.612;5.536;2023-07-09T09:06:51;6.97;;;4.10;;
59786;SDS011;45672;51.612;5.536;2023-07-09T09:09:40;6.93;;;4.18;;
59786;SDS011;45672;51.612;5.536;2023-07-09T09:14:38;7.15;;;4.28;;
59786;SDS011;45672;51.612;5.536;2023-07-09T09:17:13;5.60;;;3.92;;
59786;SDS011;45672;51.612;5.536;2023-07-09T09:19:55;7.28;;;4.20;;
59786;SDS011;45672;51.612;5.536;2023-07-09T09:22:33;6.93;;;3.83;;
59786;SDS011;45672;51.612;5.536;2023-07-09T09:25:32;4.55;;;3.70;;
59786;SDS011;45672;51.612;5.536;2023-07-09T09:28:00;11.13;;;3.50;;
59786;SDS011;45672;51.612;5.536;2023-07-09T09:30:27;3.88;;;3.47;;
59786;SDS011;45672;51.612;5.536;2023-07-09T09:32:55;8.68;;;3.90;;
59786;SDS011;45672;51.612;5.536;2023-07-09T09:35:33;7.70;;;3.83;;
59786;SDS011;45672;51.612;5.536;2023-07-09T09:38:00;6.80;;;3.40;;
59786;SDS011;45672;51.612;5.536;2023-07-09T09:40:27;6.30;;;3.30;;
59786;SDS011;45672;51.612;5.536;2023-07-09T09:42:58;11.02;;;3.90;;
59786;SDS011;45672;51.612;5.536;2023-07-09T09:45:32;6.10;;;3.40;;
59786;SDS011;45672;51.612;5.536;2023-07-09T09:48:00;7.45;;;3.70;;
59786;SDS011;45672;51.612;5.536;2023-07-09T09:50:31;9.68;;;3.88;;
59786;SDS011;45672;51.612;5.536;2023-07-09T09:52:58;5.70;;;3.83;;
59786;SDS011;45672;51.612;5.536;2023-07-09T09:55:26;7.82;;;3.83;;
59786;SDS011;45672;51.612;5.536;2023-07-09T09:57:54;6.75;;;3.40;;
59786;SDS011;45672;51.612;5.536;2023-07-09T10:00:22;6.47;;;3.60;;
59786;SDS011;45672;51.612;5.536;2023-07-09T10:02:50;7.20;;;3.50;;
59786;SDS011;45672;51.612;5.536;2023-07-09T10:05:22;8.35;;;3.25;;
59786;SDS011;45672;51.612;5.536;2023-07-09T10:08:03;9.45;;;3.65;;
59786;SDS011;45672;51.612;5.536;2023-07-09T10:10:34;12.48;;;3.17;;
59786;SDS011;45672;51.612;5.536;2023-07-09T10:15:42;9.82;;;3.63;;
59786;SDS011;45672;51.612;5.536;2023-07-09T10:20:45;5.60;;;3.20;;
59786;SDS011;45672;51.612;5.536;2023-07-09T10:37:17;4.47;;;3.00;;
59786;SDS011;45672;51.612;5.536;2023-07-09T10:39:50;5.57;;;2.80;;
59786;SDS011;45672;51.612;5.536;2023-07-09T10:42:24;3.33;;;2.80;;
59786;SDS011;45672;51.612;5.536;2023-07-09T10:45:02;5.53;;;3.08;;
59786;SDS011;45672;51.612;5.536;2023-07-09T10:47:43;4.13;;;2.70;;
59786;SDS011;45672;51.612;5.536;2023-07-09T10:53:28;7.32;;;3.00;;
59786;SDS011;45672;51.612;5.536;2023-07-09T10:56:05;8.32;;;3.17;;
59786;SDS011;45672;51.612;5.536;2023-07-09T11:01:42;9.20;;;3.30;;
59786;SDS011;45672;51.612;5.536;2023-07-09T11:04:20;5.90;;;3.60;;
59786;SDS011;45672;51.612;5.536;2023-07-09T11:06:55;13.30;;;3.80;;
59786;SDS011;45672;51.612;5.536;2023-07-09T11:09:27;5.97;;;3.40;;
59786;SDS011;45672;51.612;5.536;2023-07-09T11:12:06;5.80;;;3.78;;
59786;SDS011;45672;51.612;5.536;2023-07-09T11:14:37;6.78;;;3.70;;
59786;SDS011;45672;51.612;5.536;2023-07-09T11:17:12;7.53;;;3.63;;
59786;SDS011;45672;51.612;5.536;2023-07-09T11:19:44;6.63;;;3.50;;
59786;SDS011;45672;51.612;5.536;2023-07-09T11:27:31;8.90;;;4.00;;
59786;SDS011;45672;51.612;5.536;2023-07-09T11:29:58;4.38;;;3.90;;
59786;SDS011;45672;51.612;5.536;2023-07-09T11:32:26;7.90;;;4.07;;
59786;SDS011;45672;51.612;5.536;2023-07-09T11:34:53;4.35;;;3.55;;
59786;SDS011;45672;51.612;5.536;2023-07-09T11:37:20;4.18;;;3.38;;
59786;SDS011;45672;51.612;5.536;2023-07-09T11:39:50;8.13;;;3.88;;
59786;SDS011;45672;51.612;5.536;2023-07-09T11:42:23;6.63;;;3.63;;
59786;SDS011;45672;51.612;5.536;2023-07-09T11:45:06;5.82;;;3.70;;
59786;SDS011;45672;51.612;5.536;2023-07-09T11:47:42;6.07;;;3.58;;
59786;SDS011;45672;51.612;5.536;2023-07-09T11:58:09;8.57;;;4.20;;
59786;SDS011;45672;51.612;5.536;2023-07-09T12:03:25;11.80;;;4.13;;
59786;SDS011;45672;51.612;5.536;2023-07-09T12:05:53;13.38;;;4.50;;
59786;SDS011;45672;51.612;5.536;2023-07-09T12:08:22;6.63;;;4.10;;
59786;SDS011;45672;51.612;5.536;2023-07-09T12:10:59;10.23;;;4.50;;
59786;SDS011;45672;51.612;5.536;2023-07-09T12:13:24;7.68;;;3.90;;
59786;SDS011;45672;51.612;5.536;2023-07-09T12:15:50;5.30;;;4.00;;
59786;SDS011;45672;51.612;5.536;2023-07-09T12:18:15;8.82;;;4.00;;
59786;SDS011;45672;51.612;5.536;2023-07-09T12:20:42;6.72;;;3.80;;
59786;SDS011;45672;51.612;5.536;2023-07-09T12:25:53;8.13;;;3.60;;
59786;SDS011;45672;51.612;5.536;2023-07-09T12:28:19;7.25;;;3.80;;
59786;SDS011;45672;51.612;5.536;2023-07-09T12:30:50;5.63;;;3.78;;
59786;SDS011;45672;51.612;5.536;2023-07-09T12:33:20;8.90;;;3.70;;
59786;SDS011;45672;51.612;5.536;2023-07-09T12:35:48;11.48;;;3.78;;
59786;SDS011;45672;51.612;5.536;2023-07-09T12:38:19;6.88;;;3.55;;
59786;SDS011;45672;51.612;5.536;2023-07-09T12:40:47;8.07;;;4.00;;
59786;SDS011;45672;51.612;5.536;2023-07-09T12:43:19;5.22;;;3.85;;
59786;SDS011;45672;51.612;5.536;2023-07-09T12:45:49;12.85;;;4.35;;
59786;SDS011;45672;51.612;5.536;2023-07-09T12:48:15;6.60;;;4.20;;
59786;SDS011;45672;51.612;5.536;2023-07-09T12:50:40;9.75;;;4.10;;
59786;SDS011;45672;51.612;5.536;2023-07-09T12:53:13;7.35;;;4.18;;
59786;SDS011;45672;51.612;5.536;2023-07-09T12:55:41;6.40;;;4.85;;
59786;SDS011;45672;51.612;5.536;2023-07-09T12:58:16;14.48;;;4.47;;
59786;SDS011;45672;51.612;5.536;2023-07-09T13:00:49;5.68;;;4.10;;
59786;SDS011;45672;51.612;5.536;2023-07-09T13:03:31;11.10;;;6.00;;
59786;SDS011;45672;51.612;5.536;2023-07-09T13:05:59;10.38;;;6.15;;
59786;SDS011;45672;51.612;5.536;2023-07-09T13:08:30;12.65;;;8.00;;
59786;SDS011;45672;51.612;5.536;2023-07-09T13:10:57;12.80;;;8.40;;
59786;SDS011;45672;51.612;5.536;2023-07-09T13:13:23;18.90;;;9.10;;
59786;SDS011;45672;51.612;5.536;2023-07-09T13:15:56;12.18;;;9.50;;
59786;SDS011;45672;51.612;5.536;2023-07-09T13:18:25;16.30;;;9.55;;
59786;SDS011;45672;51.612;5.536;2023-07-09T13:20:51;16.98;;;9.18;;
59786;SDS011;45672;51.612;5.536;2023-07-09T13:23:19;14.75;;;9.75;;
59786;SDS011;45672;51.612;5.536;2023-07-09T13:25:47;11.25;;;9.20;;
59786;SDS011;45672;51.612;5.536;2023-07-09T13:28:17;13.68;;;8.80;;
59786;SDS011;45672;51.612;5.536;2023-07-09T13:30:43;12.52;;;8.75;;
59786;SDS011;45672;51.612;5.536;2023-07-09T13:33:09;12.68;;;8.70;;
59786;SDS011;45672;51.612;5.536;2023-07-09T13:35:35;12.55;;;9.43;;
59786;SDS011;45672;51.612;5.536;2023-07-09T13:38:01;18.15;;;9.25;;
59786;SDS011;45672;51.612;5.536;2023-07-09T13:40:29;13.73;;;9.35;;
59786;SDS011;45672;51.612;5.536;2023-07-09T13:42:55;20.02;;;10.07;;
59786;SDS011;45672;51.612;5.536;2023-07-09T13:45:22;18.08;;;10.43;;
59786;SDS011;45672;51.612;5.536;2023-07-09T13:47:50;14.10;;;9.57;;
59786;SDS011;45672;51.612;5.536;2023-07-09T13:50:17;15.98;;;10.32;;
59786;SDS011;45672;51.612;5.536;2023-07-09T13:52:43;14.50;;;10.82;;
59786;SDS011;45672;51.612;5.536;2023-07-09T13:55:14;18.90;;;12.75;;
59786;SDS011;45672;51.612;5.536;2023-07-09T13:57:45;16.83;;;12.32;;
59786;SDS011;45672;51.612;5.536;2023-07-09T14:00:11;19.42;;;11.40;;
59786;SDS011;45672;51.612;5.536;2023-07-09T14:02:37;18.30;;;11.18;;
59786;SDS011;45672;51.612;5.536;2023-07-09T14:05:04;22.83;;;11.20;;
59786;SDS011;45672;51.612;5.536;2023-07-09T14:07:34;20.67;;;10.90;;
59786;SDS011;45672;51.612;5.536;2023-07-09T14:10:01;17.17;;;9.73;;
59786;SDS011;45672;51.612;5.536;2023-07-09T14:12:32;13.73;;;7.97;;
59786;SDS011;45672;51.612;5.536;2023-07-09T14:14:59;13.38;;;6.32;;
59786;SDS011;45672;51.612;5.536;2023-07-09T14:17:26;9.07;;;6.28;;
59786;SDS011;45672;51.612;5.536;2023-07-09T14:19:52;12.00;;;5.07;;
59786;SDS011;45672;51.612;5.536;2023-07-09T14:22:32;13.35;;;4.88;;
59786;SDS011;45672;51.612;5.536;2023-07-09T14:24:59;9.10;;;4.70;;
59786;SDS011;45672;51.612;5.536;2023-07-09T14:27:25;6.60;;;4.68;;
59786;SDS011;45672;51.612;5.536;2023-07-09T14:29:50;10.02;;;4.82;;
59786;SDS011;45672;51.612;5.536;2023-07-09T14:35:24;4.90;;;4.10;;
59786;SDS011;45672;51.612;5.536;2023-07-09T14:37:50;5.15;;;4.15;;
59786;SDS011;45672;51.612;5.536;2023-07-09T14:40:17;6.30;;;3.30;;
59786;SDS011;45672;51.612;5.536;2023-07-09T14:42:44;5.03;;;3.25;;
59786;SDS011;45672;51.612;5.536;2023-07-09T14:45:32;5.90;;;3.78;;
59786;SDS011;45672;51.612;5.536;2023-07-09T14:47:57;5.68;;;3.55;;
59786;SDS011;45672;51.612;5.536;2023-07-09T14:50:23;4.20;;;3.20;;
59786;SDS011;45672;51.612;5.536;2023-07-09T14:52:50;5.50;;;3.20;;
59786;SDS011;45672;51.612;5.536;2023-07-09T14:55:20;4.45;;;3.17;;
59786;SDS011;45672;51.612;5.536;2023-07-09T14:57:47;5.88;;;3.28;;
59786;SDS011;45672;51.612;5.536;2023-07-09T15:00:14;5.55;;;3.50;;
59786;SDS011;45672;51.612;5.536;2023-07-09T15:02:50;5.30;;;3.40;;
59786;SDS011;45672;51.612;5.536;2023-07-09T15:05:22;4.90;;;3.42;;
59786;SDS011;45672;51.612;5.536;2023-07-09T15:07:49;4.43;;;3.38;;
59786;SDS011;45672;51.612;5.536;2023-07-09T15:10:16;6.70;;;3.35;;
59786;SDS011;45672;51.612;5.536;2023-07-09T15:12:46;3.63;;;3.28;;
59786;SDS011;45672;51.612;5.536;2023-07-09T15:15:28;5.80;;;3.70;;
59786;SDS011;45672;51.612;5.536;2023-07-09T15:17:55;6.72;;;3.60;;
59786;SDS011;45672;51.612;5.536;2023-07-09T15:20:24;12.10;;;3.75;;
59786;SDS011;45672;51.612;5.536;2023-07-09T15:22:52;5.53;;;3.30;;
59786;SDS011;45672;51.612;5.536;2023-07-09T15:25:21;5.43;;;3.55;;
59786;SDS011;45672;51.612;5.536;2023-07-09T15:27:48;5.90;;;3.70;;
59786;SDS011;45672;51.612;5.536;2023-07-09T15:30:15;6.82;;;3.78;;
59786;SDS011;45672;51.612;5.536;2023-07-09T15:32:42;6.00;;;3.60;;